Terminal Aerodrome Forecast
Issued by NWS North Platte, NE

Home | Current Version | Previous Version | Graphics & Text | Print | Product List | Glossary On
Versions: 1 2 3 4 5 6 7 8 9 10 11 12 13 14 15 16 17 18
000
FTUS43 KLBF 301100
TAFVTN
TAF
KVTN 301133Z 3012/0112 17012G24KT P6SM OVC030
     FM301500 20025G32KT P6SM BKN070
     FM301800 23029G36KT P6SM VCSH BKN100
     FM010000 24014KT P6SM OVC100
     FM010400 24007KT P6SM OVC100=

USA.gov is the U.S. government's official web portal to all federal, state and local government web resources and services.